Montebello, Virginia
Current Conditions -  °F | °C
As of 11:55 PM on Monday 20 Oct 2014 (Local Time) from KW13 Reporting Station
Scattered Clouds Scattered Clouds  
Wind Chill: 52°   Ceiling: Unl
Heat Index: 52°   Visibility: 10mi
Dew Point: 47°   Wind: 0mph
Humidity: 85%   Direction: NA
Pressure: 29.94"   Gusts: NA
Location:  37.86°N, 79.14°W
Report Text: KW13 210355Z AUTO 00000KT 10SM SCT110 11/09 A2994 RMK AO1 T01110086
Loading
Personal Weather Stations






























Interactive Weather Map
Tropical Storm Tracking
New forecast layout! Learn more

10-Day Weather Forecast

Advertisements
Track Severe Weather on mobile